createdAt,value
2019-03-30T00:03:49.860Z,1.37
2019-03-30T00:08:56.528Z,1.65
2019-03-30T00:14:02.786Z,1.40
2019-03-30T00:19:09.492Z,1.80
2019-03-30T00:24:16.068Z,1.67
2019-03-30T00:29:23.158Z,1.70
2019-03-30T00:34:29.815Z,1.67
2019-03-30T00:39:35.743Z,1.60
2019-03-30T00:44:44.151Z,1.70
2019-03-30T00:49:51.038Z,1.40
2019-03-30T00:54:57.097Z,1.50
2019-03-30T01:00:04.137Z,1.47
2019-03-30T01:05:11.004Z,1.40
2019-03-30T01:10:17.580Z,1.57
2019-03-30T01:15:23.778Z,2.70
2019-03-30T01:20:29.729Z,2.40
2019-03-30T01:25:54.560Z,1.67
2019-03-30T01:31:02.469Z,1.80
2019-03-30T01:36:09.579Z,1.75
2019-03-30T01:41:15.672Z,1.77
2019-03-30T01:46:21.923Z,1.77
2019-03-30T01:51:28.298Z,1.70
2019-03-30T01:56:34.558Z,1.87
2019-03-30T02:01:40.408Z,1.92
2019-03-30T02:06:46.868Z,1.95
2019-03-30T02:11:53.017Z,1.95
2019-03-30T02:16:59.441Z,1.60
2019-03-30T02:22:06.150Z,1.72
2019-03-30T02:27:13.159Z,1.52
2019-03-30T02:32:19.550Z,2.00
2019-03-30T02:37:26.778Z,1.77
2019-03-30T02:42:32.771Z,2.50
2019-03-30T02:47:39.290Z,2.50
2019-03-30T02:52:45.664Z,2.55
2019-03-30T02:57:51.761Z,2.85
2019-03-30T03:02:58.051Z,2.30
2019-03-30T03:08:04.392Z,2.22
2019-03-30T03:13:10.621Z,3.27
2019-03-30T03:18:17.199Z,2.33
2019-03-30T03:23:23.582Z,2.08
2019-03-30T03:28:29.939Z,2.05
2019-03-30T03:33:36.105Z,2.33
2019-03-30T03:38:42.650Z,2.10
2019-03-30T03:43:49.048Z,2.15
2019-03-30T03:48:55.280Z,2.00
2019-03-30T03:54:01.495Z,2.10
2019-03-30T03:59:07.771Z,2.25
2019-03-30T04:04:15.123Z,1.95
2019-03-30T04:09:22.180Z,1.90
2019-03-30T04:14:28.790Z,2.10
2019-03-30T04:19:35.059Z,2.00
2019-03-30T04:24:41.481Z,2.00
2019-03-30T04:29:47.786Z,1.67
2019-03-30T04:34:54.050Z,1.90
2019-03-30T04:40:00.541Z,2.08
2019-03-30T04:45:07.110Z,2.00
2019-03-30T04:50:13.440Z,2.17
2019-03-30T04:55:19.910Z,2.33
2019-03-30T05:00:44.830Z,2.47
2019-03-30T05:06:09.570Z,2.35
2019-03-30T05:11:15.868Z,2.30
2019-03-30T05:16:22.749Z,2.00
2019-03-30T05:21:28.929Z,2.22
2019-03-30T05:26:35.310Z,2.17
2019-03-30T05:31:41.610Z,2.00
2019-03-30T05:36:47.820Z,1.98
2019-03-30T05:41:54.729Z,1.95
2019-03-30T05:47:02.529Z,1.95
2019-03-30T05:52:08.828Z,2.10
2019-03-30T05:57:15.769Z,2.00
2019-03-30T06:02:22.249Z,1.72
2019-03-30T06:07:28.589Z,1.90
2019-03-30T06:12:35.080Z,2.35
2019-03-30T06:17:41.379Z,1.75
2019-03-30T06:22:47.920Z,2.00
2019-03-30T06:27:54.228Z,2.00
2019-03-30T06:33:00.589Z,1.90
2019-03-30T06:38:07.000Z,1.77
2019-03-30T06:43:13.519Z,1.70
2019-03-30T06:48:19.849Z,1.90
2019-03-30T06:53:26.377Z,1.70
2019-03-30T06:58:32.969Z,1.75
2019-03-30T07:03:39.440Z,1.70
2019-03-30T07:08:45.829Z,3.30
2019-03-30T07:13:52.058Z,3.17
2019-03-30T07:18:58.651Z,3.27
2019-03-30T07:24:05.118Z,2.98
2019-03-30T07:29:11.519Z,2.92
2019-03-30T07:34:17.919Z,2.65
2019-03-30T07:39:24.499Z,2.60
2019-03-30T07:44:30.872Z,2.90
2019-03-30T07:49:37.200Z,2.65
2019-03-30T07:54:43.693Z,2.60
2019-03-30T07:59:50.079Z,2.60
2019-03-30T08:04:56.329Z,2.77
2019-03-30T08:10:02.900Z,2.77
2019-03-30T08:15:09.949Z,2.58
2019-03-30T08:20:16.579Z,2.25
2019-03-30T08:25:23.009Z,2.70
2019-03-30T08:30:29.689Z,2.35
2019-03-30T08:35:36.542Z,2.65
2019-03-30T08:40:52.622Z,2.45
2019-03-30T08:45:59.019Z,3.17
2019-03-30T08:51:20.807Z,2.90
2019-03-30T08:56:32.512Z,3.15
2019-03-30T09:01:38.570Z,3.58
2019-03-30T09:06:48.446Z,3.25
2019-03-30T09:11:54.733Z,3.10
2019-03-30T09:17:01.089Z,3.12
2019-03-30T09:22:07.591Z,3.08
2019-03-30T09:27:14.101Z,2.85
2019-03-30T09:37:36.610Z,2.92
2019-03-30T09:42:42.960Z,3.85
2019-03-30T09:47:49.610Z,3.47
2019-03-30T09:52:56.023Z,4.45
2019-03-30T09:58:02.399Z,5.20
2019-03-30T10:03:09.119Z,5.62
2019-03-30T10:08:17.190Z,6.60
2019-03-30T10:13:23.699Z,7.45
2019-03-30T10:18:30.259Z,8.45
2019-03-30T10:23:36.549Z,8.65
2019-03-30T10:28:42.779Z,8.53
2019-03-30T10:33:49.190Z,10.15
2019-03-30T10:38:55.843Z,9.83
2019-03-30T10:44:02.571Z,5.97
2019-03-30T10:49:09.021Z,4.17
2019-03-30T10:54:15.640Z,3.83
2019-03-30T10:59:22.202Z,11.15
2019-03-30T11:04:28.632Z,11.03
2019-03-30T11:09:35.139Z,8.73
2019-03-30T11:14:41.649Z,5.47
2019-03-30T11:19:48.089Z,5.15
2019-03-30T11:25:06.525Z,4.17
2019-03-30T11:30:02.543Z,4.20
2019-03-30T11:35:08.531Z,3.80
2019-03-30T11:40:16.178Z,4.10
2019-03-30T11:45:21.876Z,3.80
2019-03-30T11:50:27.989Z,3.75
2019-03-30T11:55:34.927Z,4.28
2019-03-30T12:00:41.334Z,4.40
2019-03-30T12:05:48.083Z,3.45
2019-03-30T12:10:55.098Z,3.17
2019-03-30T12:16:02.409Z,3.15
2019-03-30T12:21:09.370Z,3.02
2019-03-30T12:26:16.203Z,2.83
2019-03-30T12:31:22.659Z,2.58
2019-03-30T12:36:29.131Z,2.40
2019-03-30T12:41:35.609Z,2.22
2019-03-30T12:46:42.048Z,2.10
2019-03-30T12:51:48.378Z,1.72
2019-03-30T12:56:54.699Z,1.75
2019-03-30T13:02:01.120Z,2.02
2019-03-30T13:07:07.632Z,1.75
2019-03-30T13:12:13.992Z,1.80
2019-03-30T13:17:20.299Z,1.72
2019-03-30T13:22:26.880Z,1.98
2019-03-30T13:27:33.511Z,1.98
2019-03-30T13:32:39.879Z,7.92
2019-03-30T13:37:46.179Z,4.95
2019-03-30T13:42:52.429Z,5.65
2019-03-30T13:48:00.259Z,5.42
2019-03-30T13:53:06.809Z,4.95
2019-03-30T13:58:13.160Z,4.00
2019-03-30T14:03:20.009Z,4.40
2019-03-30T14:08:26.429Z,3.17
2019-03-30T14:13:33.192Z,3.00
2019-03-30T14:18:39.950Z,2.62
2019-03-30T14:23:46.460Z,2.22
2019-03-30T14:28:53.029Z,2.65
2019-03-30T14:33:59.388Z,2.85
2019-03-30T14:39:06.069Z,2.52
2019-03-30T14:44:12.476Z,2.83
2019-03-30T14:49:18.862Z,2.42
2019-03-30T14:54:25.772Z,2.37
2019-03-30T14:59:32.200Z,2.22
2019-03-30T15:04:38.970Z,2.60
2019-03-30T15:09:45.320Z,3.00
2019-03-30T15:14:51.659Z,2.62
2019-03-30T15:19:58.250Z,2.30
2019-03-30T15:25:04.961Z,2.67
2019-03-30T15:30:11.169Z,2.05
2019-03-30T15:35:17.519Z,2.62
2019-03-30T15:40:24.251Z,2.22
2019-03-30T15:45:30.991Z,2.50
2019-03-30T15:50:37.508Z,2.60
2019-03-30T15:55:44.007Z,2.27
2019-03-30T16:00:50.793Z,2.55
2019-03-30T16:05:57.220Z,2.08
2019-03-30T16:11:03.614Z,2.27
2019-03-30T16:16:10.209Z,2.00
2019-03-30T16:21:16.852Z,1.98
2019-03-30T16:26:23.540Z,2.08
2019-03-30T16:31:30.309Z,1.80
2019-03-30T16:36:36.779Z,2.12
2019-03-30T16:41:43.199Z,2.22
2019-03-30T16:46:49.631Z,2.55
2019-03-30T16:51:56.369Z,2.72
2019-03-30T16:57:02.909Z,2.72
2019-03-30T17:02:09.459Z,4.15
2019-03-30T17:07:16.231Z,12.93
2019-03-30T17:12:23.683Z,18.02
2019-03-30T17:17:30.451Z,21.70
2019-03-30T17:22:36.922Z,22.60
2019-03-30T17:27:57.074Z,23.80
2019-03-30T17:32:51.448Z,23.38
2019-03-30T17:37:58.280Z,22.42
2019-03-30T17:43:04.844Z,20.57
2019-03-30T17:48:11.480Z,19.52
2019-03-30T17:53:17.831Z,15.55
2019-03-30T17:58:24.379Z,15.55
2019-03-30T18:03:31.389Z,13.62
2019-03-30T18:08:45.788Z,11.65
2019-03-30T18:13:52.942Z,12.40
2019-03-30T18:19:04.940Z,10.10
2019-03-30T18:24:44.285Z,8.50
2019-03-30T18:30:12.019Z,6.33
2019-03-30T18:35:37.764Z,5.45
2019-03-30T18:40:52.697Z,5.60
2019-03-30T18:46:08.280Z,4.65
2019-03-30T18:51:29.176Z,4.67
2019-03-30T18:56:35.463Z,4.58
2019-03-30T19:01:51.619Z,3.83
2019-03-30T19:07:17.127Z,3.62
2019-03-30T19:12:23.453Z,3.83
2019-03-30T19:17:29.930Z,4.05
2019-03-30T19:22:36.130Z,3.62
2019-03-30T19:27:42.510Z,3.65
2019-03-30T19:32:48.713Z,3.65
2019-03-30T19:37:55.281Z,3.20
2019-03-30T19:43:01.893Z,3.30
2019-03-30T19:48:08.449Z,2.95
2019-03-30T19:53:15.161Z,2.42
2019-03-30T19:58:21.839Z,2.87
2019-03-30T20:03:28.418Z,2.70
2019-03-30T20:08:34.679Z,2.77
2019-03-30T20:13:41.477Z,2.60
2019-03-30T20:18:48.120Z,2.90
2019-03-30T20:23:55.239Z,2.60
2019-03-30T20:29:02.070Z,2.62
2019-03-30T20:34:09.296Z,2.70
2019-03-30T20:39:16.910Z,2.70
2019-03-30T20:44:23.990Z,2.47
2019-03-30T20:49:30.690Z,2.47
2019-03-30T20:54:37.591Z,2.55
2019-03-30T20:59:46.370Z,2.37
2019-03-30T21:04:52.552Z,2.40
2019-03-30T21:09:58.959Z,2.67
2019-03-30T21:15:05.348Z,2.42
2019-03-30T21:20:11.830Z,2.22
2019-03-30T21:25:18.292Z,2.30
2019-03-30T21:30:26.158Z,2.37
2019-03-30T21:35:32.859Z,2.30
2019-03-30T21:40:40.609Z,2.37
2019-03-30T21:45:46.859Z,2.15
2019-03-30T21:50:54.252Z,2.02
2019-03-30T21:56:00.729Z,2.40
2019-03-30T22:01:07.210Z,2.45
2019-03-30T22:06:13.479Z,2.55
2019-03-30T22:11:20.221Z,2.20
2019-03-30T22:16:26.469Z,1.92
2019-03-30T22:21:32.411Z,2.20
2019-03-30T22:26:39.342Z,2.12
2019-03-30T22:31:46.380Z,1.85
2019-03-30T22:36:52.509Z,1.95
2019-03-30T22:41:59.168Z,2.27
2019-03-30T22:47:05.519Z,2.10
2019-03-30T22:52:11.949Z,1.87
2019-03-30T22:57:18.269Z,2.22
2019-03-30T23:02:24.761Z,2.10
2019-03-30T23:07:30.979Z,1.80
2019-03-30T23:12:37.319Z,2.33
2019-03-30T23:17:43.761Z,2.20
2019-03-30T23:22:50.159Z,1.98
2019-03-30T23:27:56.479Z,2.08
2019-03-30T23:33:02.670Z,2.02
2019-03-30T23:38:09.171Z,2.65
2019-03-30T23:43:15.586Z,2.30
2019-03-30T23:48:21.929Z,2.40
2019-03-30T23:53:28.380Z,2.50
2019-03-30T23:58:34.839Z,2.00
